sensor_id;sensor_type;location;lat;lon;timestamp;temperature;humidity
51902;DHT22;37929;53.218;6.548;2023-03-16T00:02:07;5.00;99.90
51902;DHT22;37929;53.218;6.548;2023-03-16T00:04:33;4.60;99.90
51902;DHT22;37929;53.218;6.548;2023-03-16T00:07:09;4.60;99.90
51902;DHT22;37929;53.218;6.548;2023-03-16T00:09:36;4.60;99.90
51902;DHT22;37929;53.218;6.548;2023-03-16T00:12:07;4.70;99.90
51902;DHT22;37929;53.218;6.548;2023-03-16T00:14:43;4.60;99.90
51902;DHT22;37929;53.218;6.548;2023-03-16T00:17:14;4.60;99.90
51902;DHT22;37929;53.218;6.548;2023-03-16T00:19:54;4.70;99.90
51902;DHT22;37929;53.218;6.548;2023-03-16T00:22:27;4.60;99.90
51902;DHT22;37929;53.218;6.548;2023-03-16T00:24:54;4.60;99.90
51902;DHT22;37929;53.218;6.548;2023-03-16T00:27:21;4.70;99.90
51902;DHT22;37929;53.218;6.548;2023-03-16T00:29:49;5.20;99.90
51902;DHT22;37929;53.218;6.548;2023-03-16T00:32:25;5.20;99.90
51902;DHT22;37929;53.218;6.548;2023-03-16T00:34:52;4.60;99.90
51902;DHT22;37929;53.218;6.548;2023-03-16T00:37:19;4.60;99.90
51902;DHT22;37929;53.218;6.548;2023-03-16T00:39:48;4.80;99.90
51902;DHT22;37929;53.218;6.548;2023-03-16T00:42:15;4.60;99.90
51902;DHT22;37929;53.218;6.548;2023-03-16T00:44:42;4.80;99.90
51902;DHT22;37929;53.218;6.548;2023-03-16T00:47:08;4.60;99.90
51902;DHT22;37929;53.218;6.548;2023-03-16T00:49:35;4.60;99.90
51902;DHT22;37929;53.218;6.548;2023-03-16T00:52:02;5.30;99.90
51902;DHT22;37929;53.218;6.548;2023-03-16T00:54:30;4.60;99.90
51902;DHT22;37929;53.218;6.548;2023-03-16T00:57:00;4.60;99.90
51902;DHT22;37929;53.218;6.548;2023-03-16T00:59:27;4.60;99.90
51902;DHT22;37929;53.218;6.548;2023-03-16T01:01:54;4.60;99.90
51902;DHT22;37929;53.218;6.548;2023-03-16T01:04:20;4.60;99.90
51902;DHT22;37929;53.218;6.548;2023-03-16T01:06:46;4.60;99.90
51902;DHT22;37929;53.218;6.548;2023-03-16T01:09:12;4.60;99.90
51902;DHT22;37929;53.218;6.548;2023-03-16T01:11:40;4.60;99.90
51902;DHT22;37929;53.218;6.548;2023-03-16T01:14:08;4.60;99.90
51902;DHT22;37929;53.218;6.548;2023-03-16T01:16:34;5.10;99.90
51902;DHT22;37929;53.218;6.548;2023-03-16T01:19:00;4.60;99.90
51902;DHT22;37929;53.218;6.548;2023-03-16T01:21:26;4.60;99.90
51902;DHT22;37929;53.218;6.548;2023-03-16T01:23:53;4.60;99.90
51902;DHT22;37929;53.218;6.548;2023-03-16T01:26:20;4.60;99.90
51902;DHT22;37929;53.218;6.548;2023-03-16T01:28:46;4.60;99.90
51902;DHT22;37929;53.218;6.548;2023-03-16T01:31:14;4.80;99.90
51902;DHT22;37929;53.218;6.548;2023-03-16T01:33:40;4.60;99.90
51902;DHT22;37929;53.218;6.548;2023-03-16T01:36:15;5.30;99.90
51902;DHT22;37929;53.218;6.548;2023-03-16T01:38:41;4.60;99.90
51902;DHT22;37929;53.218;6.548;2023-03-16T01:41:07;4.70;99.90
51902;DHT22;37929;53.218;6.548;2023-03-16T01:43:34;4.60;99.90
51902;DHT22;37929;53.218;6.548;2023-03-16T01:53:43;4.60;99.90
51902;DHT22;37929;53.218;6.548;2023-03-16T01:56:13;4.80;99.90
51902;DHT22;37929;53.218;6.548;2023-03-16T01:58:42;4.60;99.90
51902;DHT22;37929;53.218;6.548;2023-03-16T02:01:09;4.60;99.90
51902;DHT22;37929;53.218;6.548;2023-03-16T02:03:35;4.60;99.90
51902;DHT22;37929;53.218;6.548;2023-03-16T02:08:34;4.60;99.90
51902;DHT22;37929;53.218;6.548;2023-03-16T02:11:01;4.60;99.90
51902;DHT22;37929;53.218;6.548;2023-03-16T02:13:30;4.60;99.90
51902;DHT22;37929;53.218;6.548;2023-03-16T02:16:02;4.60;99.90
51902;DHT22;37929;53.218;6.548;2023-03-16T02:18:28;4.60;99.90
51902;DHT22;37929;53.218;6.548;2023-03-16T02:21:21;4.50;99.90
51902;DHT22;37929;53.218;6.548;2023-03-16T02:23:50;4.50;99.90
51902;DHT22;37929;53.218;6.548;2023-03-16T02:29:02;4.50;99.90
51902;DHT22;37929;53.218;6.548;2023-03-16T02:31:30;4.50;99.90
51902;DHT22;37929;53.218;6.548;2023-03-16T02:33:58;4.50;99.90
51902;DHT22;37929;53.218;6.548;2023-03-16T02:36:24;4.50;99.90
51902;DHT22;37929;53.218;6.548;2023-03-16T02:38:50;4.50;99.90
51902;DHT22;37929;53.218;6.548;2023-03-16T02:41:18;4.50;99.90
51902;DHT22;37929;53.218;6.548;2023-03-16T02:43:54;4.50;99.90
51902;DHT22;37929;53.218;6.548;2023-03-16T02:46:23;4.50;99.90
51902;DHT22;37929;53.218;6.548;2023-03-16T02:51:50;4.50;99.90
51902;DHT22;37929;53.218;6.548;2023-03-16T02:54:16;4.70;99.90
51902;DHT22;37929;53.218;6.548;2023-03-16T02:56:41;4.50;99.90
51902;DHT22;37929;53.218;6.548;2023-03-16T02:59:07;4.50;99.90
51902;DHT22;37929;53.218;6.548;2023-03-16T03:01:33;4.50;99.90
51902;DHT22;37929;53.218;6.548;2023-03-16T03:04:01;4.50;99.90
51902;DHT22;37929;53.218;6.548;2023-03-16T03:06:27;4.60;99.90
51902;DHT22;37929;53.218;6.548;2023-03-16T03:08:54;4.50;99.90
51902;DHT22;37929;53.218;6.548;2023-03-16T03:11:19;4.60;99.90
51902;DHT22;37929;53.218;6.548;2023-03-16T03:13:46;4.50;99.90
51902;DHT22;37929;53.218;6.548;2023-03-16T03:16:12;4.50;99.90
51902;DHT22;37929;53.218;6.548;2023-03-16T03:18:38;5.20;99.90
51902;DHT22;37929;53.218;6.548;2023-03-16T03:21:04;4.60;99.90
51902;DHT22;37929;53.218;6.548;2023-03-16T03:23:30;4.60;99.90
51902;DHT22;37929;53.218;6.548;2023-03-16T03:25:57;4.60;99.90
51902;DHT22;37929;53.218;6.548;2023-03-16T03:28:23;4.60;99.90
51902;DHT22;37929;53.218;6.548;2023-03-16T03:30:49;4.60;99.90
51902;DHT22;37929;53.218;6.548;2023-03-16T03:33:16;4.60;99.90
51902;DHT22;37929;53.218;6.548;2023-03-16T03:35:42;4.60;99.90
51902;DHT22;37929;53.218;6.548;2023-03-16T03:38:08;4.60;99.90
51902;DHT22;37929;53.218;6.548;2023-03-16T03:40:33;4.60;99.90
51902;DHT22;37929;53.218;6.548;2023-03-16T03:42:59;4.60;99.90
51902;DHT22;37929;53.218;6.548;2023-03-16T03:45:26;4.60;99.90
51902;DHT22;37929;53.218;6.548;2023-03-16T03:47:52;4.60;99.90
51902;DHT22;37929;53.218;6.548;2023-03-16T03:50:20;4.60;99.90
51902;DHT22;37929;53.218;6.548;2023-03-16T03:52:46;4.60;99.90
51902;DHT22;37929;53.218;6.548;2023-03-16T03:55:12;4.90;99.90
51902;DHT22;37929;53.218;6.548;2023-03-16T03:57:38;4.60;99.90
51902;DHT22;37929;53.218;6.548;2023-03-16T04:00:08;4.60;99.90
51902;DHT22;37929;53.218;6.548;2023-03-16T04:02:36;4.60;99.90
51902;DHT22;37929;53.218;6.548;2023-03-16T04:05:03;4.60;99.90
51902;DHT22;37929;53.218;6.548;2023-03-16T04:07:31;4.60;99.90
51902;DHT22;37929;53.218;6.548;2023-03-16T04:09:57;4.60;99.90
51902;DHT22;37929;53.218;6.548;2023-03-16T04:12:22;5.20;99.90
51902;DHT22;37929;53.218;6.548;2023-03-16T04:14:49;4.60;99.90
51902;DHT22;37929;53.218;6.548;2023-03-16T04:17:16;4.60;99.90
51902;DHT22;37929;53.218;6.548;2023-03-16T04:19:42;4.60;99.90
51902;DHT22;37929;53.218;6.548;2023-03-16T04:22:08;4.60;99.90
51902;DHT22;37929;53.218;6.548;2023-03-16T04:24:33;4.60;99.90
51902;DHT22;37929;53.218;6.548;2023-03-16T04:27:00;4.60;99.90
51902;DHT22;37929;53.218;6.548;2023-03-16T04:29:27;4.90;99.90
51902;DHT22;37929;53.218;6.548;2023-03-16T04:31:53;5.10;99.90
51902;DHT22;37929;53.218;6.548;2023-03-16T04:34:20;5.00;99.90
51902;DHT22;37929;53.218;6.548;2023-03-16T04:36:56;4.50;99.90
51902;DHT22;37929;53.218;6.548;2023-03-16T04:39:22;4.50;99.90
51902;DHT22;37929;53.218;6.548;2023-03-16T04:41:48;4.50;99.90
51902;DHT22;37929;53.218;6.548;2023-03-16T04:44:14;4.50;99.90
51902;DHT22;37929;53.218;6.548;2023-03-16T04:46:40;4.50;99.90
51902;DHT22;37929;53.218;6.548;2023-03-16T04:49:06;4.50;99.90
51902;DHT22;37929;53.218;6.548;2023-03-16T04:51:37;4.50;99.90
51902;DHT22;37929;53.218;6.548;2023-03-16T04:54:05;4.50;99.90
51902;DHT22;37929;53.218;6.548;2023-03-16T04:56:30;4.40;99.90
51902;DHT22;37929;53.218;6.548;2023-03-16T04:58:56;5.20;99.90
51902;DHT22;37929;53.218;6.548;2023-03-16T05:01:22;4.50;99.90
51902;DHT22;37929;53.218;6.548;2023-03-16T05:03:48;4.40;99.90
51902;DHT22;37929;53.218;6.548;2023-03-16T05:06:14;4.40;99.90
51902;DHT22;37929;53.218;6.548;2023-03-16T05:08:41;4.40;99.90
51902;DHT22;37929;53.218;6.548;2023-03-16T05:11:07;5.00;99.90
51902;DHT22;37929;53.218;6.548;2023-03-16T05:13:33;4.70;99.90
51902;DHT22;37929;53.218;6.548;2023-03-16T05:15:59;4.50;99.90
51902;DHT22;37929;53.218;6.548;2023-03-16T05:18:24;4.50;99.90
51902;DHT22;37929;53.218;6.548;2023-03-16T05:20:55;4.40;99.90
51902;DHT22;37929;53.218;6.548;2023-03-16T05:23:22;4.50;99.90
51902;DHT22;37929;53.218;6.548;2023-03-16T05:25:48;5.00;99.90
51902;DHT22;37929;53.218;6.548;2023-03-16T05:28:15;5.20;99.90
51902;DHT22;37929;53.218;6.548;2023-03-16T05:30:42;4.50;99.90
51902;DHT22;37929;53.218;6.548;2023-03-16T05:33:10;4.50;99.90
51902;DHT22;37929;53.218;6.548;2023-03-16T05:35:35;4.50;99.90
51902;DHT22;37929;53.218;6.548;2023-03-16T05:38:03;4.40;99.90
51902;DHT22;37929;53.218;6.548;2023-03-16T05:40:29;4.50;99.90
51902;DHT22;37929;53.218;6.548;2023-03-16T05:42:55;4.50;99.90
51902;DHT22;37929;53.218;6.548;2023-03-16T05:45:21;4.40;99.90
51902;DHT22;37929;53.218;6.548;2023-03-16T05:47:48;4.50;99.90
51902;DHT22;37929;53.218;6.548;2023-03-16T05:50:14;4.50;99.90
51902;DHT22;37929;53.218;6.548;2023-03-16T05:52:42;4.50;99.90
51902;DHT22;37929;53.218;6.548;2023-03-16T05:55:12;4.50;99.90
51902;DHT22;37929;53.218;6.548;2023-03-16T05:57:39;4.50;99.90
51902;DHT22;37929;53.218;6.548;2023-03-16T06:00:07;5.10;99.90
51902;DHT22;37929;53.218;6.548;2023-03-16T06:02:45;4.50;99.90
51902;DHT22;37929;53.218;6.548;2023-03-16T06:05:15;4.50;99.90
51902;DHT22;37929;53.218;6.548;2023-03-16T06:07:40;4.50;99.90
51902;DHT22;37929;53.218;6.548;2023-03-16T06:10:07;4.50;99.90
51902;DHT22;37929;53.218;6.548;2023-03-16T06:12:33;4.50;99.90
51902;DHT22;37929;53.218;6.548;2023-03-16T06:15:00;4.90;99.90
51902;DHT22;37929;53.218;6.548;2023-03-16T06:17:26;4.50;99.90
51902;DHT22;37929;53.218;6.548;2023-03-16T06:19:52;4.50;99.90
51902;DHT22;37929;53.218;6.548;2023-03-16T06:22:18;4.50;99.90
51902;DHT22;37929;53.218;6.548;2023-03-16T06:24:43;4.50;99.90
51902;DHT22;37929;53.218;6.548;2023-03-16T06:27:09;4.50;99.90
51902;DHT22;37929;53.218;6.548;2023-03-16T06:29:38;4.50;99.90
51902;DHT22;37929;53.218;6.548;2023-03-16T06:32:04;4.50;99.90
51902;DHT22;37929;53.218;6.548;2023-03-16T06:34:30;4.50;99.90
51902;DHT22;37929;53.218;6.548;2023-03-16T06:36:56;4.50;99.90
51902;DHT22;37929;53.218;6.548;2023-03-16T06:39:21;4.50;99.90
51902;DHT22;37929;53.218;6.548;2023-03-16T06:41:47;4.50;99.90
51902;DHT22;37929;53.218;6.548;2023-03-16T06:44:13;4.50;99.90
51902;DHT22;37929;53.218;6.548;2023-03-16T06:46:39;4.80;99.90
51902;DHT22;37929;53.218;6.548;2023-03-16T06:49:04;5.30;99.90
51902;DHT22;37929;53.218;6.548;2023-03-16T06:51:33;4.60;99.90
51902;DHT22;37929;53.218;6.548;2023-03-16T06:53:59;4.60;99.90
51902;DHT22;37929;53.218;6.548;2023-03-16T06:56:25;5.30;99.90
51902;DHT22;37929;53.218;6.548;2023-03-16T06:58:52;4.90;99.90
51902;DHT22;37929;53.218;6.548;2023-03-16T07:01:18;4.60;99.90
51902;DHT22;37929;53.218;6.548;2023-03-16T07:03:44;4.60;99.90
51902;DHT22;37929;53.218;6.548;2023-03-16T07:06:10;4.80;99.90
51902;DHT22;37929;53.218;6.548;2023-03-16T07:08:36;4.90;99.90
51902;DHT22;37929;53.218;6.548;2023-03-16T07:11:02;4.70;99.90
51902;DHT22;37929;53.218;6.548;2023-03-16T07:13:28;4.70;99.90
51902;DHT22;37929;53.218;6.548;2023-03-16T07:15:54;4.70;99.90
51902;DHT22;37929;53.218;6.548;2023-03-16T07:18:19;4.70;99.90
51902;DHT22;37929;53.218;6.548;2023-03-16T07:20:45;5.00;99.90
51902;DHT22;37929;53.218;6.548;2023-03-16T07:23:11;4.70;99.90
51902;DHT22;37929;53.218;6.548;2023-03-16T07:25:37;4.80;99.90
51902;DHT22;37929;53.218;6.548;2023-03-16T07:28:03;4.80;99.90
51902;DHT22;37929;53.218;6.548;2023-03-16T07:30:29;4.80;99.90
51902;DHT22;37929;53.218;6.548;2023-03-16T07:32:55;4.90;99.90
51902;DHT22;37929;53.218;6.548;2023-03-16T07:35:21;4.90;99.90
51902;DHT22;37929;53.218;6.548;2023-03-16T07:37:47;4.90;99.90
51902;DHT22;37929;53.218;6.548;2023-03-16T07:40:14;4.90;99.90
51902;DHT22;37929;53.218;6.548;2023-03-16T07:42:40;4.90;99.90
51902;DHT22;37929;53.218;6.548;2023-03-16T07:45:07;5.00;99.90
51902;DHT22;37929;53.218;6.548;2023-03-16T07:47:33;5.00;99.90
51902;DHT22;37929;53.218;6.548;2023-03-16T07:49:59;5.00;99.90
51902;DHT22;37929;53.218;6.548;2023-03-16T07:52:26;5.20;99.90
51902;DHT22;37929;53.218;6.548;2023-03-16T07:54:52;5.50;99.90
51902;DHT22;37929;53.218;6.548;2023-03-16T07:57:17;5.00;99.90
51902;DHT22;37929;53.218;6.548;2023-03-16T07:59:43;5.10;99.90
51902;DHT22;37929;53.218;6.548;2023-03-16T08:02:15;5.10;99.90
51902;DHT22;37929;53.218;6.548;2023-03-16T08:04:41;5.10;99.90
51902;DHT22;37929;53.218;6.548;2023-03-16T08:07:11;5.20;99.90
51902;DHT22;37929;53.218;6.548;2023-03-16T08:09:37;5.20;99.90
51902;DHT22;37929;53.218;6.548;2023-03-16T08:12:05;5.20;99.90
51902;DHT22;37929;53.218;6.548;2023-03-16T08:14:32;5.30;99.90
51902;DHT22;37929;53.218;6.548;2023-03-16T08:17:02;5.20;99.90
51902;DHT22;37929;53.218;6.548;2023-03-16T08:19:29;5.40;99.90
51902;DHT22;37929;53.218;6.548;2023-03-16T08:21:55;5.30;99.90
51902;DHT22;37929;53.218;6.548;2023-03-16T08:24:22;5.20;99.90
51902;DHT22;37929;53.218;6.548;2023-03-16T08:26:47;5.20;99.90
51902;DHT22;37929;53.218;6.548;2023-03-16T08:29:13;5.30;99.90
51902;DHT22;37929;53.218;6.548;2023-03-16T08:31:39;5.20;99.90
51902;DHT22;37929;53.218;6.548;2023-03-16T08:34:07;5.20;99.90
51902;DHT22;37929;53.218;6.548;2023-03-16T08:36:34;5.10;99.90
51902;DHT22;37929;53.218;6.548;2023-03-16T08:39:02;5.10;99.90
51902;DHT22;37929;53.218;6.548;2023-03-16T08:41:28;5.10;99.90
51902;DHT22;37929;53.218;6.548;2023-03-16T08:43:55;5.20;99.90
51902;DHT22;37929;53.218;6.548;2023-03-16T08:46:22;5.20;99.90
51902;DHT22;37929;53.218;6.548;2023-03-16T08:48:49;5.10;99.90
51902;DHT22;37929;53.218;6.548;2023-03-16T08:51:15;5.10;99.90
51902;DHT22;37929;53.218;6.548;2023-03-16T08:53:42;5.10;99.90
51902;DHT22;37929;53.218;6.548;2023-03-16T08:56:12;5.10;99.90
51902;DHT22;37929;53.218;6.548;2023-03-16T08:58:40;5.20;99.90
51902;DHT22;37929;53.218;6.548;2023-03-16T09:01:12;5.20;99.90
51902;DHT22;37929;53.218;6.548;2023-03-16T09:03:38;5.20;99.90
51902;DHT22;37929;53.218;6.548;2023-03-16T09:06:07;5.80;99.90
51902;DHT22;37929;53.218;6.548;2023-03-16T09:08:34;5.20;99.90
51902;DHT22;37929;53.218;6.548;2023-03-16T09:11:09;5.20;99.90
51902;DHT22;37929;53.218;6.548;2023-03-16T09:13:36;5.20;99.90
51902;DHT22;37929;53.218;6.548;2023-03-16T09:16:06;5.20;99.90
51902;DHT22;37929;53.218;6.548;2023-03-16T09:18:33;5.20;99.90
51902;DHT22;37929;53.218;6.548;2023-03-16T09:21:04;5.20;99.90
51902;DHT22;37929;53.218;6.548;2023-03-16T09:23:31;5.10;99.90
51902;DHT22;37929;53.218;6.548;2023-03-16T09:26:01;5.10;99.90
51902;DHT22;37929;53.218;6.548;2023-03-16T09:28:28;5.10;99.90
51902;DHT22;37929;53.218;6.548;2023-03-16T09:30:56;5.10;99.90
51902;DHT22;37929;53.218;6.548;2023-03-16T09:33:24;5.70;99.90
51902;DHT22;37929;53.218;6.548;2023-03-16T09:35:50;5.10;99.90
51902;DHT22;37929;53.218;6.548;2023-03-16T09:38:18;5.10;99.90
51902;DHT22;37929;53.218;6.548;2023-03-16T09:40:45;5.10;99.90
51902;DHT22;37929;53.218;6.548;2023-03-16T09:48:38;5.60;99.90
51902;DHT22;37929;53.218;6.548;2023-03-16T09:51:12;5.30;99.90
51902;DHT22;37929;53.218;6.548;2023-03-16T09:53:41;5.80;99.90
51902;DHT22;37929;53.218;6.548;2023-03-16T09:56:18;6.00;99.90
51902;DHT22;37929;53.218;6.548;2023-03-16T09:58:45;5.50;99.90
51902;DHT22;37929;53.218;6.548;2023-03-16T10:01:25;5.50;99.90
51902;DHT22;37929;53.218;6.548;2023-03-16T10:06:26;5.50;99.90
51902;DHT22;37929;53.218;6.548;2023-03-16T10:09:31;5.70;99.90
51902;DHT22;37929;53.218;6.548;2023-03-16T10:12:00;5.40;99.90
51902;DHT22;37929;53.218;6.548;2023-03-16T10:14:36;5.90;99.90
51902;DHT22;37929;53.218;6.548;2023-03-16T10:17:25;6.00;99.90
51902;DHT22;37929;53.218;6.548;2023-03-16T10:20:00;5.40;99.90
51902;DHT22;37929;53.218;6.548;2023-03-16T10:22:32;5.50;99.90
51902;DHT22;37929;53.218;6.548;2023-03-16T10:27:43;5.60;99.90
51902;DHT22;37929;53.218;6.548;2023-03-16T10:32:44;5.60;99.90
51902;DHT22;37929;53.218;6.548;2023-03-16T10:35:39;5.60;99.90
51902;DHT22;37929;53.218;6.548;2023-03-16T10:38:08;5.60;99.90
51902;DHT22;37929;53.218;6.548;2023-03-16T10:40:52;5.70;99.90
51902;DHT22;37929;53.218;6.548;2023-03-16T10:43:18;5.70;99.90
51902;DHT22;37929;53.218;6.548;2023-03-16T10:45:44;5.70;99.90
51902;DHT22;37929;53.218;6.548;2023-03-16T10:48:19;5.70;99.90
51902;DHT22;37929;53.218;6.548;2023-03-16T10:50:55;5.70;99.90
51902;DHT22;37929;53.218;6.548;2023-03-16T10:53:28;5.70;99.90
51902;DHT22;37929;53.218;6.548;2023-03-16T10:55:59;5.70;99.90
51902;DHT22;37929;53.218;6.548;2023-03-16T10:58:30;5.70;99.90
51902;DHT22;37929;53.218;6.548;2023-03-16T11:00:57;5.70;99.90
51902;DHT22;37929;53.218;6.548;2023-03-16T11:03:28;5.80;99.90
51902;DHT22;37929;53.218;6.548;2023-03-16T11:06:14;5.80;99.90
51902;DHT22;37929;53.218;6.548;2023-03-16T11:08:42;5.80;99.90
51902;DHT22;37929;53.218;6.548;2023-03-16T11:11:10;5.90;99.90
51902;DHT22;37929;53.218;6.548;2023-03-16T11:13:44;5.90;99.90
51902;DHT22;37929;53.218;6.548;2023-03-16T11:16:38;5.90;99.90
51902;DHT22;37929;53.218;6.548;2023-03-16T11:21:55;6.00;99.90
51902;DHT22;37929;53.218;6.548;2023-03-16T11:24:28;6.00;99.90
51902;DHT22;37929;53.218;6.548;2023-03-16T11:26:58;6.40;99.90
51902;DHT22;37929;53.218;6.548;2023-03-16T11:29:42;6.10;99.90
51902;DHT22;37929;53.218;6.548;2023-03-16T11:32:15;6.20;99.90
51902;DHT22;37929;53.218;6.548;2023-03-16T11:34:43;6.20;99.90
51902;DHT22;37929;53.218;6.548;2023-03-16T11:37:12;6.30;99.90
51902;DHT22;37929;53.218;6.548;2023-03-16T11:51:37;6.50;99.90
51902;DHT22;37929;53.218;6.548;2023-03-16T11:57:02;6.60;99.90
51902;DHT22;37929;53.218;6.548;2023-03-16T11:59:58;6.60;99.90
51902;DHT22;37929;53.218;6.548;2023-03-16T12:08:11;6.70;99.90
51902;DHT22;37929;53.218;6.548;2023-03-16T12:10:48;6.80;99.90
51902;DHT22;37929;53.218;6.548;2023-03-16T12:15:48;6.90;99.90
51902;DHT22;37929;53.218;6.548;2023-03-16T12:18:35;7.00;99.90
51902;DHT22;37929;53.218;6.548;2023-03-16T12:21:09;7.10;99.90
51902;DHT22;37929;53.218;6.548;2023-03-16T12:23:53;7.20;99.90
51902;DHT22;37929;53.218;6.548;2023-03-16T12:26:22;7.30;99.90
51902;DHT22;37929;53.218;6.548;2023-03-16T12:28:50;7.30;99.90
51902;DHT22;37929;53.218;6.548;2023-03-16T12:31:44;7.40;99.90
51902;DHT22;37929;53.218;6.548;2023-03-16T12:39:31;7.60;99.90
51902;DHT22;37929;53.218;6.548;2023-03-16T12:45:32;7.70;99.90
51902;DHT22;37929;53.218;6.548;2023-03-16T12:50:29;7.80;99.90
51902;DHT22;37929;53.218;6.548;2023-03-16T12:52:54;7.90;99.90
51902;DHT22;37929;53.218;6.548;2023-03-16T12:58:03;7.90;99.90
51902;DHT22;37929;53.218;6.548;2023-03-16T13:00:33;7.90;99.90
51902;DHT22;37929;53.218;6.548;2023-03-16T13:03:01;7.90;99.90
51902;DHT22;37929;53.218;6.548;2023-03-16T13:05:30;7.90;99.90
51902;DHT22;37929;53.218;6.548;2023-03-16T13:08:15;7.90;99.90
51902;DHT22;37929;53.218;6.548;2023-03-16T13:10:41;8.00;99.90
51902;DHT22;37929;53.218;6.548;2023-03-16T13:13:12;8.00;99.90
51902;DHT22;37929;53.218;6.548;2023-03-16T13:15:40;8.00;99.90
51902;DHT22;37929;53.218;6.548;2023-03-16T13:20:59;8.00;99.90
51902;DHT22;37929;53.218;6.548;2023-03-16T13:23:27;8.10;99.90
51902;DHT22;37929;53.218;6.548;2023-03-16T13:28:53;8.20;99.90
51902;DHT22;37929;53.218;6.548;2023-03-16T13:31:49;8.20;99.90
51902;DHT22;37929;53.218;6.548;2023-03-16T13:34:46;8.30;99.90
51902;DHT22;37929;53.218;6.548;2023-03-16T13:37:16;8.30;99.90
51902;DHT22;37929;53.218;6.548;2023-03-16T13:39:54;8.40;99.90
51902;DHT22;37929;53.218;6.548;2023-03-16T13:42:22;8.50;99.90
51902;DHT22;37929;53.218;6.548;2023-03-16T13:44:55;8.50;99.90
51902;DHT22;37929;53.218;6.548;2023-03-16T13:47:22;8.60;99.90
51902;DHT22;37929;53.218;6.548;2023-03-16T13:49:55;8.70;99.90
51902;DHT22;37929;53.218;6.548;2023-03-16T13:52:32;8.70;99.90
51902;DHT22;37929;53.218;6.548;2023-03-16T13:55:01;8.80;99.90
51902;DHT22;37929;53.218;6.548;2023-03-16T13:57:29;8.80;99.90
51902;DHT22;37929;53.218;6.548;2023-03-16T14:02:30;8.80;99.90
51902;DHT22;37929;53.218;6.548;2023-03-16T14:04:56;8.70;99.90
51902;DHT22;37929;53.218;6.548;2023-03-16T14:07:23;8.80;99.90
51902;DHT22;37929;53.218;6.548;2023-03-16T14:09:50;8.90;99.90
51902;DHT22;37929;53.218;6.548;2023-03-16T14:12:18;9.00;99.90
51902;DHT22;37929;53.218;6.548;2023-03-16T14:14:49;9.00;99.90
51902;DHT22;37929;53.218;6.548;2023-03-16T14:17:20;9.10;99.90
51902;DHT22;37929;53.218;6.548;2023-03-16T14:19:48;9.10;99.90
51902;DHT22;37929;53.218;6.548;2023-03-16T14:22:21;9.10;99.90
51902;DHT22;37929;53.218;6.548;2023-03-16T14:24:58;9.10;99.90
51902;DHT22;37929;53.218;6.548;2023-03-16T14:27:28;9.00;99.90
51902;DHT22;37929;53.218;6.548;2023-03-16T14:30:13;9.00;99.90
51902;DHT22;37929;53.218;6.548;2023-03-16T14:32:40;9.10;99.90
51902;DHT22;37929;53.218;6.548;2023-03-16T14:35:19;9.00;99.90
51902;DHT22;37929;53.218;6.548;2023-03-16T14:37:45;9.10;99.90
51902;DHT22;37929;53.218;6.548;2023-03-16T14:40:28;9.10;99.90
51902;DHT22;37929;53.218;6.548;2023-03-16T14:42:58;9.10;99.90
51902;DHT22;37929;53.218;6.548;2023-03-16T14:45:31;9.10;99.90
51902;DHT22;37929;53.218;6.548;2023-03-16T14:48:04;9.10;99.90
51902;DHT22;37929;53.218;6.548;2023-03-16T14:50:31;9.20;99.90
51902;DHT22;37929;53.218;6.548;2023-03-16T14:52:58;9.20;99.90
51902;DHT22;37929;53.218;6.548;2023-03-16T14:55:24;9.20;99.90
51902;DHT22;37929;53.218;6.548;2023-03-16T14:57:51;9.30;99.90
51902;DHT22;37929;53.218;6.548;2023-03-16T15:00:19;9.40;99.90
51902;DHT22;37929;53.218;6.548;2023-03-16T15:05:36;9.50;99.90
51902;DHT22;37929;53.218;6.548;2023-03-16T15:08:06;9.50;99.90
51902;DHT22;37929;53.218;6.548;2023-03-16T15:10:35;9.50;99.90
51902;DHT22;37929;53.218;6.548;2023-03-16T15:13:01;9.50;99.90
51902;DHT22;37929;53.218;6.548;2023-03-16T15:15:38;9.50;99.90
51902;DHT22;37929;53.218;6.548;2023-03-16T15:18:07;9.50;99.90
51902;DHT22;37929;53.218;6.548;2023-03-16T15:20:38;9.40;99.90
51902;DHT22;37929;53.218;6.548;2023-03-16T15:23:06;9.40;99.90
51902;DHT22;37929;53.218;6.548;2023-03-16T15:25:42;9.40;99.90
51902;DHT22;37929;53.218;6.548;2023-03-16T15:28:18;9.40;99.90
51902;DHT22;37929;53.218;6.548;2023-03-16T15:30:46;9.30;99.90
51902;DHT22;37929;53.218;6.548;2023-03-16T15:33:12;9.40;99.90
51902;DHT22;37929;53.218;6.548;2023-03-16T15:35:40;9.30;99.90
51902;DHT22;37929;53.218;6.548;2023-03-16T15:38:17;9.40;99.90
51902;DHT22;37929;53.218;6.548;2023-03-16T15:40:45;9.40;99.90
51902;DHT22;37929;53.218;6.548;2023-03-16T15:43:14;9.40;99.90
51902;DHT22;37929;53.218;6.548;2023-03-16T15:45:41;9.40;99.90
51902;DHT22;37929;53.218;6.548;2023-03-16T15:48:08;9.40;99.90
51902;DHT22;37929;53.218;6.548;2023-03-16T15:50:35;9.40;99.90
51902;DHT22;37929;53.218;6.548;2023-03-16T15:53:06;9.40;99.90
51902;DHT22;37929;53.218;6.548;2023-03-16T15:55:37;9.40;99.90
51902;DHT22;37929;53.218;6.548;2023-03-16T15:58:05;9.40;99.90
51902;DHT22;37929;53.218;6.548;2023-03-16T16:00:36;9.40;99.90
51902;DHT22;37929;53.218;6.548;2023-03-16T16:03:04;9.70;99.90
51902;DHT22;37929;53.218;6.548;2023-03-16T16:05:30;9.40;99.90
51902;DHT22;37929;53.218;6.548;2023-03-16T16:07:57;9.40;99.90
51902;DHT22;37929;53.218;6.548;2023-03-16T16:10:24;9.50;99.90
51902;DHT22;37929;53.218;6.548;2023-03-16T16:12:52;9.50;99.90
51902;DHT22;37929;53.218;6.548;2023-03-16T16:15:27;9.50;99.90
51902;DHT22;37929;53.218;6.548;2023-03-16T16:17:56;9.50;99.90
51902;DHT22;37929;53.218;6.548;2023-03-16T16:20:26;9.50;99.90
51902;DHT22;37929;53.218;6.548;2023-03-16T16:22:54;9.50;99.90
51902;DHT22;37929;53.218;6.548;2023-03-16T16:25:27;9.50;99.90
51902;DHT22;37929;53.218;6.548;2023-03-16T16:27:56;9.50;99.90
51902;DHT22;37929;53.218;6.548;2023-03-16T16:30:26;9.50;99.90
51902;DHT22;37929;53.218;6.548;2023-03-16T16:32:52;9.50;99.90
51902;DHT22;37929;53.218;6.548;2023-03-16T16:35:20;9.50;99.90
51902;DHT22;37929;53.218;6.548;2023-03-16T16:37:47;9.50;99.90
51902;DHT22;37929;53.218;6.548;2023-03-16T16:40:19;9.40;99.90
51902;DHT22;37929;53.218;6.548;2023-03-16T16:42:46;9.40;99.90
51902;DHT22;37929;53.218;6.548;2023-03-16T16:45:21;9.50;99.90
51902;DHT22;37929;53.218;6.548;2023-03-16T16:47:49;9.40;99.90
51902;DHT22;37929;53.218;6.548;2023-03-16T16:50:22;9.40;99.90
51902;DHT22;37929;53.218;6.548;2023-03-16T16:52:50;9.40;99.90
51902;DHT22;37929;53.218;6.548;2023-03-16T16:55:17;9.40;99.90
51902;DHT22;37929;53.218;6.548;2023-03-16T16:57:44;9.40;99.90
51902;DHT22;37929;53.218;6.548;2023-03-16T17:00:21;9.40;99.90
51902;DHT22;37929;53.218;6.548;2023-03-16T17:02:53;9.40;99.90
51902;DHT22;37929;53.218;6.548;2023-03-16T17:05:27;9.40;99.90
51902;DHT22;37929;53.218;6.548;2023-03-16T17:07:53;9.30;99.90
51902;DHT22;37929;53.218;6.548;2023-03-16T17:10:22;9.30;99.90
51902;DHT22;37929;53.218;6.548;2023-03-16T17:12:51;9.20;99.90
51902;DHT22;37929;53.218;6.548;2023-03-16T17:15:27;9.20;99.90
51902;DHT22;37929;53.218;6.548;2023-03-16T17:18:09;9.10;99.90